createdAt,value
2019-02-08T00:00:20.191Z,29.30
2019-02-08T00:02:48.536Z,30.80
2019-02-08T00:05:16.820Z,31.87
2019-02-08T00:07:45.132Z,31.53
2019-02-08T00:10:15.902Z,32.33
2019-02-08T00:12:44.219Z,33.23
2019-02-08T00:15:15.473Z,31.27
2019-02-08T00:17:43.783Z,30.73
2019-02-08T00:20:18.253Z,30.10
2019-02-08T00:22:46.582Z,30.70
2019-02-08T00:25:17.553Z,29.53
2019-02-08T00:27:45.817Z,28.90
2019-02-08T00:30:20.627Z,30.60
2019-02-08T00:32:49.066Z,30.43
2019-02-08T00:35:17.507Z,30.20
2019-02-08T00:37:45.822Z,29.93
2019-02-08T00:40:16.538Z,30.77
2019-02-08T00:42:44.810Z,28.33
2019-02-08T00:45:22.691Z,29.80
2019-02-08T00:47:50.999Z,30.67
2019-02-08T00:50:21.722Z,29.77
2019-02-08T00:52:50.032Z,29.73
2019-02-08T00:55:18.768Z,29.33
2019-02-08T00:57:47.042Z,29.20
2019-02-08T01:00:16.529Z,30.47
2019-02-08T01:02:46.680Z,29.87
2019-02-08T01:05:19.990Z,27.50
2019-02-08T01:07:48.299Z,28.97
2019-02-08T01:10:21.901Z,27.60
2019-02-08T01:12:50.179Z,29.57
2019-02-08T01:15:19.909Z,26.73
2019-02-08T01:17:48.191Z,26.70
2019-02-08T01:20:18.614Z,26.10
2019-02-08T01:22:46.991Z,26.73
2019-02-08T01:25:17.622Z,27.73
2019-02-08T01:27:46.170Z,26.60
2019-02-08T01:30:22.847Z,25.87
2019-02-08T01:32:51.137Z,26.87
2019-02-08T01:35:20.655Z,26.50
2019-02-08T01:37:49.333Z,26.07
2019-02-08T01:40:26.882Z,26.60
2019-02-08T01:42:55.964Z,24.63
2019-02-08T01:45:26.173Z,25.60
2019-02-08T01:47:54.457Z,25.60
2019-02-08T01:50:28.420Z,25.13
2019-02-08T01:52:56.694Z,23.97
2019-02-08T01:55:24.966Z,25.47
2019-02-08T01:57:53.273Z,24.87
2019-02-08T02:00:27.558Z,24.73
2019-02-08T02:02:55.829Z,24.60
2019-02-08T02:05:24.206Z,25.77
2019-02-08T02:07:52.473Z,26.13
2019-02-08T02:10:32.397Z,24.60
2019-02-08T02:13:00.673Z,25.57
2019-02-08T02:15:29.033Z,25.10
2019-02-08T02:17:57.488Z,27.53
2019-02-08T02:20:28.698Z,26.17
2019-02-08T02:22:56.977Z,26.93
2019-02-08T02:25:25.284Z,27.00
2019-02-08T02:27:53.565Z,26.00
2019-02-08T02:30:24.945Z,26.43
2019-02-08T02:32:53.269Z,26.03
2019-02-08T02:35:21.551Z,24.37
2019-02-08T02:37:49.860Z,25.10
2019-02-08T02:40:20.098Z,23.50
2019-02-08T02:42:48.437Z,23.97
2019-02-08T02:45:24.982Z,24.30
2019-02-08T02:47:53.268Z,23.93
2019-02-08T02:50:21.534Z,24.23
2019-02-08T02:52:49.841Z,24.93
2019-02-08T02:55:26.473Z,25.17
2019-02-08T02:57:54.802Z,25.50
2019-02-08T03:00:25.913Z,25.73
2019-02-08T03:02:54.177Z,26.27
2019-02-08T03:05:22.495Z,26.07
2019-02-08T03:07:50.770Z,25.03
2019-02-08T03:10:20.883Z,24.90
2019-02-08T03:12:49.187Z,25.93
2019-02-08T03:15:19.718Z,25.87
2019-02-08T03:17:47.981Z,25.33
2019-02-08T03:20:18.153Z,24.63
2019-02-08T03:22:46.418Z,25.17
2019-02-08T03:25:20.388Z,25.17
2019-02-08T03:27:48.699Z,26.67
2019-02-08T03:30:23.854Z,24.87
2019-02-08T03:32:52.125Z,25.13
2019-02-08T03:35:22.464Z,25.13
2019-02-08T03:37:50.739Z,25.40
2019-02-08T03:40:21.853Z,26.67
2019-02-08T03:42:50.169Z,24.47
2019-02-08T03:45:18.806Z,25.17
2019-02-08T03:47:47.116Z,25.47
2019-02-08T03:50:20.718Z,24.97
2019-02-08T03:52:49.435Z,24.80
2019-02-08T03:55:22.225Z,25.27
2019-02-08T03:57:50.522Z,25.57
2019-02-08T04:00:22.670Z,26.10
2019-02-08T04:02:50.950Z,27.27
2019-02-08T04:05:19.303Z,26.87
2019-02-08T04:07:47.552Z,26.83
2019-02-08T04:10:17.788Z,29.03
2019-02-08T04:12:46.088Z,28.17
2019-02-08T04:15:17.321Z,28.00
2019-02-08T04:17:45.589Z,29.20
2019-02-08T04:20:16.246Z,29.73
2019-02-08T04:22:44.512Z,29.87
2019-02-08T04:25:15.442Z,30.37
2019-02-08T04:27:43.753Z,30.73
2019-02-08T04:30:15.362Z,28.73
2019-02-08T04:32:43.637Z,29.83
2019-02-08T04:35:12.213Z,31.13
2019-02-08T04:37:40.494Z,30.27
2019-02-08T04:40:12.259Z,31.07
2019-02-08T04:42:40.578Z,30.47
2019-02-08T04:45:10.301Z,32.17
2019-02-08T04:47:38.876Z,31.00
2019-02-08T04:50:10.449Z,31.60
2019-02-08T04:52:38.723Z,31.43
2019-02-08T04:55:08.843Z,31.97
2019-02-08T04:57:37.219Z,33.83
2019-02-08T05:00:14.632Z,33.67
2019-02-08T05:02:42.959Z,31.70
2019-02-08T05:05:11.384Z,30.40
2019-02-08T05:07:39.680Z,31.97
2019-02-08T05:10:11.583Z,32.50
2019-02-08T05:12:39.854Z,36.80
2019-02-08T05:15:08.663Z,35.33
2019-02-08T05:17:36.980Z,40.20
2019-02-08T05:20:14.419Z,51.33
2019-02-08T05:22:42.749Z,43.37
2019-02-08T05:25:11.390Z,46.70
2019-02-08T05:27:39.669Z,47.57
2019-02-08T05:30:13.995Z,40.67
2019-02-08T05:32:42.257Z,37.20
2019-02-08T05:35:11.020Z,37.03
2019-02-08T05:37:39.342Z,34.83
2019-02-08T05:40:10.259Z,36.63
2019-02-08T05:42:38.608Z,33.63
2019-02-08T05:45:10.098Z,33.97
2019-02-08T05:47:38.364Z,36.67
2019-02-08T05:50:12.707Z,34.93
2019-02-08T05:52:41.024Z,34.60
2019-02-08T05:55:12.744Z,34.97
2019-02-08T05:57:41.015Z,36.23
2019-02-08T06:00:25.564Z,37.97
2019-02-08T06:02:54.075Z,38.23
2019-02-08T06:05:22.666Z,38.07
2019-02-08T06:07:50.963Z,38.03
2019-02-08T06:10:19.242Z,38.37
2019-02-08T06:12:47.578Z,38.43
2019-02-08T06:15:24.246Z,39.13
2019-02-08T06:17:52.526Z,38.10
2019-02-08T06:20:22.136Z,36.83
2019-02-08T06:22:50.489Z,36.20
2019-02-08T06:25:20.967Z,34.40
2019-02-08T06:27:49.414Z,35.97
2019-02-08T06:30:20.458Z,35.97
2019-02-08T06:32:48.735Z,35.67
2019-02-08T06:35:18.341Z,34.30
2019-02-08T06:37:46.715Z,35.27
2019-02-08T06:40:20.672Z,35.87
2019-02-08T06:42:48.968Z,36.80
2019-02-08T06:45:22.619Z,37.70
2019-02-08T06:47:50.881Z,36.80
2019-02-08T06:50:21.601Z,35.17
2019-02-08T06:52:49.918Z,36.20
2019-02-08T06:55:18.269Z,33.23
2019-02-08T06:57:48.191Z,36.73
2019-02-08T07:00:38.247Z,35.10
2019-02-08T07:03:24.480Z,37.63
2019-02-08T07:06:03.645Z,35.97
2019-02-08T07:08:39.654Z,37.93
2019-02-08T07:11:09.585Z,37.80
2019-02-08T07:13:44.995Z,36.73
2019-02-08T07:16:17.681Z,38.77
2019-02-08T07:19:02.338Z,36.10
2019-02-08T07:21:32.302Z,36.40
2019-02-08T07:24:17.513Z,36.87
2019-02-08T07:26:49.939Z,36.00
2019-02-08T07:29:25.670Z,35.73
2019-02-08T07:32:01.281Z,36.40
2019-02-08T07:34:31.309Z,35.20
2019-02-08T07:37:01.223Z,36.13
2019-02-08T07:39:32.409Z,38.30
2019-02-08T07:42:05.011Z,38.33
2019-02-08T07:44:38.256Z,36.40
2019-02-08T07:47:24.531Z,36.00
2019-02-08T07:49:54.496Z,36.47
2019-02-08T07:52:24.410Z,35.63
2019-02-08T07:54:54.318Z,35.00
2019-02-08T07:57:25.894Z,38.30
2019-02-08T08:00:13.862Z,34.20
2019-02-08T08:03:01.074Z,33.37
2019-02-08T08:05:37.911Z,33.73
2019-02-08T08:08:24.571Z,31.50
2019-02-08T08:11:01.884Z,32.03
2019-02-08T08:13:34.368Z,32.80
2019-02-08T08:16:16.303Z,32.63
2019-02-08T08:18:55.208Z,31.07
2019-02-08T08:21:29.609Z,33.90
2019-02-08T08:24:14.806Z,31.40
2019-02-08T08:26:44.725Z,29.73
2019-02-08T08:29:19.265Z,29.80
2019-02-08T08:31:52.079Z,29.60
2019-02-08T08:34:48.806Z,29.43
2019-02-08T08:37:40.006Z,29.10
2019-02-08T08:40:23.576Z,26.83
2019-02-08T08:43:15.271Z,26.67
2019-02-08T08:46:08.206Z,26.73
2019-02-08T08:49:01.732Z,24.67
2019-02-08T08:51:41.898Z,24.70
2019-02-08T08:54:25.200Z,23.03
2019-02-08T08:57:05.355Z,22.83
2019-02-08T08:59:39.703Z,23.23
2019-02-08T09:02:23.097Z,23.03
2019-02-08T09:05:18.782Z,22.60
2019-02-08T09:08:14.400Z,22.87
2019-02-08T09:11:08.527Z,22.50
2019-02-08T09:14:00.971Z,23.97
2019-02-08T09:16:53.525Z,24.90
2019-02-08T09:19:50.849Z,21.77
2019-02-08T09:22:31.218Z,20.17
2019-02-08T09:25:11.568Z,20.50
2019-02-08T09:28:02.663Z,20.20
2019-02-08T09:30:43.394Z,22.10
2019-02-08T09:33:40.117Z,21.33
2019-02-08T09:36:36.595Z,23.70
2019-02-08T09:39:24.591Z,21.80
2019-02-08T09:42:21.174Z,20.70
2019-02-08T09:45:27.290Z,19.43
2019-02-08T09:48:31.747Z,21.47
2019-02-08T09:51:19.876Z,20.57
2019-02-08T09:54:09.200Z,25.57
2019-02-08T09:56:58.891Z,21.83
2019-02-08T09:59:50.185Z,23.00
2019-02-08T10:02:30.483Z,34.17
2019-02-08T10:05:14.102Z,20.87
2019-02-08T10:08:17.357Z,21.17
2019-02-08T10:11:19.041Z,19.97
2019-02-08T10:14:10.122Z,20.90
2019-02-08T10:16:47.515Z,19.97
2019-02-08T10:19:24.676Z,18.80
2019-02-08T10:22:13.892Z,21.57
2019-02-08T10:25:04.766Z,22.00
2019-02-08T10:27:55.405Z,19.47
2019-02-08T10:30:43.437Z,17.83
2019-02-08T10:33:39.330Z,17.77
2019-02-08T10:36:13.412Z,30.33
2019-02-08T10:38:59.903Z,39.10
2019-02-08T10:41:56.690Z,40.40
2019-02-08T10:45:02.971Z,41.70
2019-02-08T10:47:57.109Z,40.47
2019-02-08T10:50:34.611Z,41.90
2019-02-08T10:53:31.749Z,41.87
2019-02-08T10:56:31.911Z,44.17
2019-02-08T10:59:25.924Z,41.23
2019-02-08T11:02:19.553Z,42.60
2019-02-08T11:05:03.116Z,47.60
2019-02-08T11:08:09.351Z,47.53
2019-02-08T11:10:55.879Z,46.10
2019-02-08T11:13:27.580Z,47.27
2019-02-08T11:16:02.037Z,47.77
2019-02-08T11:19:06.358Z,50.20
2019-02-08T11:21:34.633Z,52.33
2019-02-08T11:24:02.910Z,48.63
2019-02-08T11:26:31.249Z,49.03
2019-02-08T11:28:59.536Z,48.93
2019-02-08T11:31:31.394Z,48.80
2019-02-08T11:33:59.792Z,49.83
2019-02-08T11:36:28.066Z,49.63
2019-02-08T11:38:56.354Z,51.20
2019-02-08T11:41:24.660Z,50.03
2019-02-08T11:43:52.949Z,51.17
2019-02-08T11:46:21.224Z,54.03
2019-02-08T11:48:49.551Z,48.93
2019-02-08T11:51:17.947Z,51.00
2019-02-08T11:53:46.214Z,54.60
2019-02-08T11:56:14.528Z,54.80
2019-02-08T11:58:42.806Z,56.70
2019-02-08T12:01:11.435Z,53.20
2019-02-08T12:03:39.753Z,50.70
2019-02-08T12:06:08.038Z,47.03
2019-02-08T12:08:36.321Z,49.97
2019-02-08T12:11:04.630Z,50.57
2019-02-08T12:13:32.912Z,52.73
2019-02-08T12:16:02.831Z,52.37
2019-02-08T12:18:31.141Z,62.40
2019-02-08T12:20:59.458Z,52.17
2019-02-08T12:23:27.823Z,54.00
2019-02-08T12:25:56.138Z,60.87
2019-02-08T12:28:24.433Z,54.93
2019-02-08T12:30:56.011Z,50.53
2019-02-08T12:33:24.321Z,51.93
2019-02-08T12:35:52.595Z,52.07
2019-02-08T12:38:20.873Z,52.63
2019-02-08T12:40:49.365Z,52.20
2019-02-08T12:43:17.713Z,55.10
2019-02-08T12:45:48.267Z,53.03
2019-02-08T12:48:16.587Z,53.50
2019-02-08T12:50:44.855Z,51.53
2019-02-08T12:53:13.152Z,50.27
2019-02-08T12:55:41.467Z,55.93
2019-02-08T12:58:09.755Z,52.23
2019-02-08T13:00:42.922Z,53.60
2019-02-08T13:03:11.234Z,52.50
2019-02-08T13:05:39.516Z,51.37
2019-02-08T13:08:07.779Z,51.03
2019-02-08T13:10:36.084Z,55.87
2019-02-08T13:13:04.371Z,51.53
2019-02-08T13:15:34.345Z,53.00
2019-02-08T13:18:02.685Z,53.43
2019-02-08T13:20:30.942Z,58.20
2019-02-08T13:22:59.214Z,57.70
2019-02-08T13:25:27.520Z,56.17
2019-02-08T13:27:57.549Z,53.80
2019-02-08T13:30:30.099Z,60.77
2019-02-08T13:32:58.472Z,51.67
2019-02-08T13:35:26.758Z,49.70
2019-02-08T13:37:55.116Z,54.37
2019-02-08T13:40:27.902Z,58.53
2019-02-08T13:42:56.188Z,58.70
2019-02-08T13:45:25.641Z,62.53
2019-02-08T13:47:54.022Z,69.43
2019-02-08T13:50:27.142Z,59.30
2019-02-08T13:52:58.990Z,55.23
2019-02-08T13:55:32.970Z,63.17
2019-02-08T13:58:01.235Z,57.23
2019-02-08T14:00:32.462Z,58.23
2019-02-08T14:03:00.738Z,56.67
2019-02-08T14:05:29.098Z,63.23
2019-02-08T14:07:57.428Z,64.60
2019-02-08T14:10:25.728Z,63.97
2019-02-08T14:12:54.011Z,62.00
2019-02-08T14:15:24.621Z,61.03
2019-02-08T14:17:52.899Z,63.67
2019-02-08T14:20:26.665Z,60.23
2019-02-08T14:22:55.251Z,60.67
2019-02-08T14:25:23.539Z,63.07
2019-02-08T14:27:52.153Z,64.13
2019-02-08T14:30:25.793Z,68.73
2019-02-08T14:32:54.265Z,59.37
2019-02-08T14:35:24.235Z,62.50
2019-02-08T14:37:52.598Z,63.13
2019-02-08T14:40:23.143Z,60.20
2019-02-08T14:42:51.433Z,60.87
2019-02-08T14:45:19.925Z,68.93
2019-02-08T14:47:48.281Z,73.60
2019-02-08T14:50:29.979Z,68.20
2019-02-08T14:52:58.610Z,67.70
2019-02-08T14:55:30.308Z,67.03
2019-02-08T14:58:03.148Z,64.37
2019-02-08T15:00:31.428Z,64.87
2019-02-08T15:02:59.708Z,71.23
2019-02-08T15:05:29.654Z,64.53
2019-02-08T15:08:00.014Z,67.20
2019-02-08T15:10:31.531Z,67.90
2019-02-08T15:13:00.378Z,67.53
2019-02-08T15:15:28.952Z,71.40
2019-02-08T15:17:58.878Z,67.27
2019-02-08T15:20:30.003Z,58.67
2019-02-08T15:22:58.367Z,77.63
2019-02-08T15:25:26.651Z,63.03
2019-02-08T15:27:54.957Z,67.87
2019-02-08T15:30:31.856Z,68.30
2019-02-08T15:33:00.230Z,73.47
2019-02-08T15:35:30.154Z,73.93
2019-02-08T15:37:58.444Z,67.83
2019-02-08T15:40:35.180Z,62.63
2019-02-08T15:43:03.495Z,64.90
2019-02-08T15:45:35.315Z,80.53
2019-02-08T15:48:03.640Z,62.77
2019-02-08T15:50:32.012Z,56.97
2019-02-08T15:53:00.356Z,60.33
2019-02-08T15:55:39.171Z,57.90
2019-02-08T15:58:09.070Z,61.10
2019-02-08T16:00:37.349Z,60.80
2019-02-08T16:03:09.089Z,66.33
2019-02-08T16:05:37.434Z,94.63
2019-02-08T16:08:05.787Z,65.60
2019-02-08T16:10:34.097Z,65.03
2019-02-08T16:13:02.370Z,61.87
2019-02-08T16:15:31.290Z,69.93
2019-02-08T16:17:59.781Z,60.37
2019-02-08T16:20:29.280Z,62.50
2019-02-08T16:22:59.672Z,61.10
2019-02-08T16:25:30.783Z,66.97
2019-02-08T16:28:01.328Z,70.27
2019-02-08T16:30:36.837Z,77.30
2019-02-08T16:33:08.119Z,70.40
2019-02-08T16:35:36.472Z,75.40
2019-02-08T16:38:07.367Z,73.30
2019-02-08T16:40:37.453Z,78.00
2019-02-08T16:43:10.247Z,75.87
2019-02-08T16:45:40.020Z,79.27
2019-02-08T16:48:12.703Z,79.13
2019-02-08T16:50:43.002Z,82.37
2019-02-08T16:53:13.410Z,84.07
2019-02-08T16:55:43.455Z,84.27
2019-02-08T16:58:14.418Z,83.77
2019-02-08T17:00:44.840Z,84.40
2019-02-08T17:03:15.870Z,88.20
2019-02-08T17:05:44.171Z,92.43
2019-02-08T17:08:12.552Z,88.40
2019-02-08T17:10:40.842Z,87.90
2019-02-08T17:13:09.201Z,89.47
2019-02-08T17:15:37.519Z,82.07
2019-02-08T17:18:07.843Z,90.40
2019-02-08T17:20:38.912Z,91.03
2019-02-08T17:23:08.928Z,89.97
2019-02-08T17:25:38.853Z,91.30
2019-02-08T17:28:08.098Z,86.53
2019-02-08T17:30:36.668Z,89.57
2019-02-08T17:33:07.420Z,76.83
2019-02-08T17:35:37.326Z,87.30
2019-02-08T17:38:09.365Z,83.00
2019-02-08T17:40:40.880Z,86.47
2019-02-08T17:43:09.156Z,78.63
2019-02-08T17:45:37.483Z,79.47
2019-02-08T17:48:07.875Z,77.57
2019-02-08T17:50:36.157Z,76.73
2019-02-08T17:53:04.631Z,76.57
2019-02-08T17:55:32.912Z,76.53
2019-02-08T17:58:03.505Z,79.30
2019-02-08T18:00:44.040Z,81.83
2019-02-08T18:03:12.327Z,67.77
2019-02-08T18:05:40.624Z,81.37
2019-02-08T18:08:08.968Z,85.97
2019-02-08T18:10:39.329Z,78.67
2019-02-08T18:13:07.609Z,79.73
2019-02-08T18:15:36.041Z,78.77
2019-02-08T18:18:06.979Z,71.90
2019-02-08T18:20:38.527Z,80.33
2019-02-08T18:23:06.856Z,82.73
2019-02-08T18:25:35.137Z,82.90
2019-02-08T18:28:11.124Z,87.13
2019-02-08T18:30:37.961Z,82.30
2019-02-08T18:33:06.523Z,81.27
2019-02-08T18:35:34.822Z,85.40
2019-02-08T18:38:03.209Z,84.87
2019-02-08T18:40:31.490Z,84.80
2019-02-08T18:42:59.776Z,85.03
2019-02-08T18:45:29.829Z,80.47
2019-02-08T18:47:58.129Z,94.17
2019-02-08T18:50:32.501Z,86.13
2019-02-08T18:53:00.893Z,84.80
2019-02-08T18:55:29.252Z,82.23
2019-02-08T18:57:57.632Z,84.83
2019-02-08T19:00:31.334Z,84.30
2019-02-08T19:03:00.708Z,79.50
2019-02-08T19:05:28.998Z,79.93
2019-02-08T19:07:57.310Z,84.33
2019-02-08T19:10:25.617Z,67.57
2019-02-08T19:12:53.876Z,69.50
2019-02-08T19:15:23.834Z,70.47
2019-02-08T19:17:52.188Z,77.63
2019-02-08T19:20:25.247Z,73.00
2019-02-08T19:22:53.545Z,78.70
2019-02-08T19:25:27.276Z,74.23
2019-02-08T19:27:55.770Z,71.10
2019-02-08T19:30:27.004Z,69.17
2019-02-08T19:32:55.262Z,69.60
2019-02-08T19:35:23.560Z,71.00
2019-02-08T19:37:51.875Z,72.97
2019-02-08T19:40:22.725Z,69.73
2019-02-08T19:42:51.176Z,70.07
2019-02-08T19:45:19.972Z,73.97
2019-02-08T19:47:52.621Z,75.57
2019-02-08T19:50:29.354Z,73.37
2019-02-08T19:52:57.886Z,70.60
2019-02-08T19:55:26.444Z,66.63
2019-02-08T19:57:54.769Z,72.27
2019-02-08T20:00:25.294Z,70.70
2019-02-08T20:02:53.567Z,72.50
2019-02-08T20:05:23.517Z,63.90
2019-02-08T20:07:53.136Z,82.20
2019-02-08T20:10:24.075Z,74.27
2019-02-08T20:12:54.258Z,71.83
2019-02-08T20:15:22.584Z,67.30
2019-02-08T20:17:50.865Z,68.63
2019-02-08T20:20:19.180Z,70.33
2019-02-08T20:22:47.475Z,70.57
2019-02-08T20:25:27.409Z,75.40
2019-02-08T20:27:55.701Z,68.53
2019-02-08T20:30:25.521Z,65.07
2019-02-08T20:32:53.922Z,67.73
2019-02-08T20:35:24.041Z,73.93
2019-02-08T20:37:52.764Z,75.40
2019-02-08T20:40:26.417Z,68.43
2019-02-08T20:42:54.876Z,70.30
2019-02-08T20:45:26.607Z,68.00
2019-02-08T20:47:55.267Z,67.47
2019-02-08T20:50:24.422Z,63.03
2019-02-08T20:52:52.940Z,65.33
2019-02-08T20:55:22.173Z,73.33
2019-02-08T20:57:52.083Z,69.60
2019-02-08T21:00:27.504Z,63.47
2019-02-08T21:02:57.064Z,70.43
2019-02-08T21:05:25.428Z,66.33
2019-02-08T21:07:53.694Z,55.23
2019-02-08T21:10:22.108Z,63.27
2019-02-08T21:12:52.046Z,63.07
2019-02-08T21:15:21.884Z,55.70
2019-02-08T21:17:50.266Z,48.93
2019-02-08T21:20:19.516Z,52.23
2019-02-08T21:22:49.542Z,53.03
2019-02-08T21:25:26.933Z,51.67
2019-02-08T21:27:55.387Z,58.47
2019-02-08T21:30:25.442Z,60.87
2019-02-08T21:32:53.857Z,53.43
2019-02-08T21:35:22.952Z,59.40
2019-02-08T21:37:53.089Z,53.67
2019-02-08T21:40:38.285Z,52.33
2019-02-08T21:43:11.047Z,54.27
2019-02-08T21:45:44.917Z,50.97
2019-02-08T21:48:15.790Z,48.73
2019-02-08T21:50:45.258Z,48.83
2019-02-08T21:53:15.209Z,61.97
2019-02-08T21:55:43.808Z,55.83
2019-02-08T21:58:13.787Z,51.03
2019-02-08T22:00:45.120Z,50.13
2019-02-08T22:03:17.712Z,50.37
2019-02-08T22:05:54.838Z,43.70
2019-02-08T22:08:23.164Z,47.00
2019-02-08T22:10:53.080Z,49.00
2019-02-08T22:13:22.357Z,44.90
2019-02-08T22:15:50.704Z,55.57
2019-02-08T22:18:21.544Z,50.83
2019-02-08T22:20:51.765Z,51.03
2019-02-08T22:23:21.665Z,57.17
2019-02-08T22:25:50.993Z,57.93
2019-02-08T22:28:19.329Z,62.70
2019-02-08T22:30:49.418Z,52.23
2019-02-08T22:33:17.524Z,50.50
2019-02-08T22:35:47.473Z,52.80
2019-02-08T22:38:15.927Z,55.37
2019-02-08T22:40:45.845Z,54.97
2019-02-08T22:43:16.207Z,61.37
2019-02-08T22:45:46.208Z,63.17
2019-02-08T22:48:14.815Z,70.63
2019-02-08T22:50:43.365Z,66.90
2019-02-08T22:53:13.304Z,62.37
2019-02-08T22:55:43.710Z,64.70
2019-02-08T22:58:14.409Z,66.47
2019-02-08T23:00:53.193Z,56.43
2019-02-08T23:03:26.004Z,53.23
2019-02-08T23:05:57.571Z,57.50
2019-02-08T23:08:25.851Z,58.97
2019-02-08T23:10:54.475Z,61.23
2019-02-08T23:13:22.759Z,56.17
2019-02-08T23:15:51.043Z,52.07
2019-02-08T23:18:19.381Z,59.67
2019-02-08T23:20:47.665Z,56.17
2019-02-08T23:23:16.014Z,53.77
2019-02-08T23:25:44.347Z,62.90
2019-02-08T23:28:12.640Z,58.60
2019-02-08T23:30:42.566Z,59.23
2019-02-08T23:33:10.885Z,50.87
2019-02-08T23:35:43.005Z,60.03
2019-02-08T23:38:09.215Z,44.60
2019-02-08T23:40:37.560Z,53.57
2019-02-08T23:43:08.557Z,58.90
2019-02-08T23:45:38.128Z,62.07
2019-02-08T23:48:06.439Z,60.23
2019-02-08T23:50:34.711Z,63.67
2019-02-08T23:53:03.067Z,66.20
2019-02-08T23:55:31.377Z,68.57
2019-02-08T23:58:02.177Z,60.60
